Norwood, Missouri
Current Conditions -  °F | °C
As of 3:53 AM on Monday 22 Dec 2014 (Local Time) from KUNO Reporting Station
Overcast Overcast  
Wind Chill: 36°   Ceiling: 2200
Heat Index: 42°   Visibility: 10mi
Dew Point: 35°   Wind: 10mph
Humidity: 76%   Direction: 130°SE
Pressure: 29.75"   Gusts: NA
Location:  37.11°N, 92.41°W
Report Text: KUNO 220953Z AUTO 13009KT 10SM BKN022 OVC031 06/02 A2975 RMK AO2 SLP078 T00560017 $
Loading
Personal Weather Stations






























Interactive Weather Map New forecast layout! Learn more

10-Day Weather Forecast

Advertisements
Track Severe Weather on mobile